createdAt,value
2023-02-22T00:03:26.261Z,97749.00
2023-02-22T00:07:27.348Z,97752.00
2023-02-22T00:11:28.553Z,97762.00
2023-02-22T00:15:29.779Z,97748.00
2023-02-22T00:19:31.094Z,97744.00
2023-02-22T00:23:32.295Z,97744.00
2023-02-22T00:27:33.407Z,97734.00
2023-02-22T00:31:36.809Z,97736.00
2023-02-22T00:35:38.483Z,97734.00
2023-02-22T00:39:39.505Z,97741.00
2023-02-22T00:43:40.777Z,97736.00
2023-02-22T00:47:41.906Z,97728.00
2023-02-22T00:51:42.970Z,97726.00
2023-02-22T00:55:44.117Z,97725.00
2023-02-22T00:59:45.238Z,97719.00
2023-02-22T01:03:46.268Z,97719.00
2023-02-22T01:07:48.807Z,97713.00
2023-02-22T01:11:54.891Z,97707.00
2023-02-22T01:15:56.247Z,97709.00
2023-02-22T01:19:57.432Z,97697.00
2023-02-22T01:23:58.604Z,97698.00
2023-02-22T01:28:00.992Z,97698.00
2023-02-22T01:32:05.125Z,97691.00
2023-02-22T01:36:08.824Z,97688.00
2023-02-22T01:40:16.790Z,97679.00
2023-02-22T01:44:32.843Z,97679.00
2023-02-22T01:48:37.788Z,97680.00
2023-02-22T01:52:38.784Z,97678.00
2023-02-22T01:56:44.351Z,97674.00
2023-02-22T02:00:45.642Z,97673.00
2023-02-22T02:04:48.209Z,97659.00
2023-02-22T02:09:02.297Z,97665.00
2023-02-22T02:13:03.385Z,97664.00
2023-02-22T02:17:06.371Z,97663.00
2023-02-22T02:21:26.347Z,97653.00
2023-02-22T02:26:03.295Z,97652.00
2023-02-22T02:30:20.367Z,97647.00
2023-02-22T02:34:36.930Z,97648.00
2023-02-22T02:38:50.653Z,97644.00
2023-02-22T02:43:07.516Z,97643.00
2023-02-22T02:47:20.714Z,97633.00
2023-02-22T02:51:25.613Z,97627.00
2023-02-22T02:55:29.551Z,97615.00
2023-02-22T02:59:33.328Z,97620.00
2023-02-22T03:03:47.141Z,97620.00
2023-02-22T03:08:13.250Z,97613.00
2023-02-22T03:12:21.029Z,97610.00
2023-02-22T03:16:29.136Z,97608.00
2023-02-22T03:20:48.758Z,97599.00
2023-02-22T03:25:08.968Z,97604.00
2023-02-22T03:29:12.742Z,97601.00
2023-02-22T03:33:35.689Z,97601.00
2023-02-22T03:37:43.534Z,97595.00
2023-02-22T03:41:50.909Z,97588.00
2023-02-22T03:45:52.745Z,97591.00
2023-02-22T03:50:14.741Z,97593.00
2023-02-22T03:54:16.341Z,97595.00
2023-02-22T03:58:21.203Z,97588.00
2023-02-22T04:02:23.077Z,97595.00
2023-02-22T04:06:24.247Z,97594.00
2023-02-22T04:10:25.489Z,97592.00
2023-02-22T04:14:28.781Z,97594.00
2023-02-22T04:18:29.323Z,97589.00
2023-02-22T04:22:30.326Z,97592.00
2023-02-22T04:26:31.453Z,97579.00
2023-02-22T04:30:32.683Z,97582.00
2023-02-22T04:34:33.813Z,97587.00
2023-02-22T04:38:34.953Z,97583.00
2023-02-22T04:42:37.152Z,97591.00
2023-02-22T04:46:38.388Z,97576.00
2023-02-22T04:50:40.012Z,97580.00
2023-02-22T04:54:41.081Z,97574.00
2023-02-22T04:58:42.085Z,97573.00
2023-02-22T05:02:43.078Z,97572.00
2023-02-22T05:06:44.201Z,97576.00
2023-02-22T05:10:45.446Z,97577.00
2023-02-22T05:14:46.531Z,97573.00
2023-02-22T05:18:47.538Z,97572.00
2023-02-22T05:22:48.961Z,97565.00
2023-02-22T05:26:50.617Z,97571.00
2023-02-22T05:30:51.740Z,97565.00
2023-02-22T05:34:52.867Z,97562.00
2023-02-22T05:38:54.682Z,97566.00
2023-02-22T05:42:56.326Z,97550.00
2023-02-22T05:46:57.443Z,97559.00
2023-02-22T05:50:58.768Z,97555.00
2023-02-22T05:54:59.865Z,97551.00
2023-02-22T05:59:00.985Z,97540.00
2023-02-22T06:03:04.913Z,97551.00
2023-02-22T06:07:06.009Z,97550.00
2023-02-22T06:11:09.107Z,97540.00
2023-02-22T06:15:10.516Z,97546.00
2023-02-22T06:19:11.615Z,97553.00
2023-02-22T06:23:12.750Z,97546.00
2023-02-22T06:27:14.045Z,97539.00
2023-02-22T06:31:15.302Z,97557.00
2023-02-22T06:35:17.188Z,97551.00
2023-02-22T06:39:18.487Z,97563.00
2023-02-22T06:43:19.576Z,97556.00
2023-02-22T06:47:21.003Z,97561.00
2023-02-22T06:51:22.541Z,97569.00
2023-02-22T06:55:28.128Z,97568.00
2023-02-22T06:59:29.238Z,97567.00
2023-02-22T07:03:30.252Z,97567.00
2023-02-22T07:07:31.341Z,97565.00
2023-02-22T07:11:32.296Z,97566.00
2023-02-22T07:15:34.646Z,97568.00
2023-02-22T07:19:35.887Z,97570.00
2023-02-22T07:23:37.726Z,97572.00
2023-02-22T07:27:41.016Z,97564.00
2023-02-22T07:31:42.026Z,97575.00
2023-02-22T07:35:46.500Z,97563.00
2023-02-22T07:39:47.537Z,97580.00
2023-02-22T07:43:48.485Z,97582.00
2023-02-22T07:47:49.381Z,97578.00
2023-02-22T07:51:50.552Z,97577.00
2023-02-22T07:55:52.316Z,97566.00
2023-02-22T07:59:53.310Z,97569.00
2023-02-22T08:03:55.385Z,97573.00
2023-02-22T08:07:56.923Z,97572.00
2023-02-22T08:11:58.243Z,97575.00
2023-02-22T08:15:59.541Z,97578.00
2023-02-22T08:20:01.188Z,97582.00
2023-02-22T08:24:02.462Z,97576.00
2023-02-22T08:28:06.317Z,97575.00
2023-02-22T08:32:07.580Z,97583.00
2023-02-22T08:36:09.318Z,97568.00
2023-02-22T08:40:12.810Z,97573.00
2023-02-22T08:44:13.914Z,97567.00
2023-02-22T08:48:15.958Z,97563.00
2023-02-22T08:52:17.096Z,97553.00
2023-02-22T08:56:18.759Z,97561.00
2023-02-22T09:00:23.287Z,97567.00
2023-02-22T09:04:24.368Z,97566.00
2023-02-22T09:08:25.611Z,97564.00
2023-02-22T09:12:26.696Z,97556.00
2023-02-22T09:16:28.641Z,97556.00
2023-02-22T09:20:30.432Z,97552.00
2023-02-22T09:24:31.505Z,97549.00
2023-02-22T09:28:32.643Z,97541.00
2023-02-22T09:32:33.850Z,97539.00
2023-02-22T09:36:35.028Z,97554.00
2023-02-22T09:40:43.818Z,97415.00
2023-02-22T09:44:57.688Z,97535.00
2023-02-22T09:49:17.530Z,97533.00
2023-02-22T09:53:27.528Z,97533.00
2023-02-22T09:57:32.593Z,97533.00
2023-02-22T10:01:43.470Z,97527.00
2023-02-22T10:05:56.030Z,97517.00
2023-02-22T10:09:58.339Z,97526.00
2023-02-22T10:14:03.150Z,97532.00
2023-02-22T10:18:23.270Z,97516.00
2023-02-22T10:22:46.477Z,97523.00
2023-02-22T10:26:48.140Z,97524.00
2023-02-22T10:30:55.155Z,97524.00
2023-02-22T10:34:59.950Z,97529.00
2023-02-22T10:39:27.739Z,97523.00
2023-02-22T10:43:29.527Z,97526.00
2023-02-22T10:47:30.641Z,97529.00
2023-02-22T10:51:32.265Z,97532.00
2023-02-22T10:55:33.961Z,97515.00
2023-02-22T10:59:37.859Z,97513.00
2023-02-22T11:03:39.190Z,97505.00
2023-02-22T11:07:42.193Z,97511.00
2023-02-22T11:11:46.582Z,97499.00
2023-02-22T11:15:47.667Z,97497.00
2023-02-22T11:19:49.850Z,97490.00
2023-02-22T11:23:54.751Z,97488.00
2023-02-22T11:28:00.374Z,97477.00
2023-02-22T11:32:14.598Z,97481.00
2023-02-22T11:36:19.660Z,97470.00
2023-02-22T11:40:22.577Z,97466.00
2023-02-22T11:44:27.044Z,97463.00
2023-02-22T11:48:31.598Z,97457.00
2023-02-22T11:52:36.701Z,97456.00
2023-02-22T11:56:47.327Z,97453.00
2023-02-22T12:00:58.128Z,97449.00
2023-02-22T12:05:07.516Z,97451.00
2023-02-22T12:09:15.149Z,97446.00
2023-02-22T12:13:32.275Z,97449.00
2023-02-22T12:17:48.217Z,97443.00
2023-02-22T12:21:51.394Z,97446.00
2023-02-22T12:26:00.224Z,97446.00
2023-02-22T12:30:05.322Z,97441.00
2023-02-22T12:34:26.809Z,97452.00
2023-02-22T12:38:39.701Z,97449.00
2023-02-22T12:42:56.820Z,97442.00
2023-02-22T12:47:00.122Z,97438.00
2023-02-22T12:51:28.755Z,97441.00
2023-02-22T12:55:45.597Z,97432.00
2023-02-22T12:59:50.620Z,97431.00
2023-02-22T13:03:53.672Z,97435.00
2023-02-22T13:08:18.497Z,97437.00
2023-02-22T13:12:32.388Z,97430.00
2023-02-22T13:16:51.199Z,97421.00
2023-02-22T13:20:57.147Z,97421.00
2023-02-22T13:25:17.401Z,97402.00
2023-02-22T13:29:22.551Z,97410.00
2023-02-22T13:33:33.581Z,97410.00
2023-02-22T13:38:10.437Z,97406.00
2023-02-22T13:42:15.627Z,97415.00
2023-02-22T13:46:40.279Z,97402.00
2023-02-22T13:51:00.330Z,97400.00
2023-02-22T13:55:06.655Z,97404.00
2023-02-22T13:59:12.211Z,97383.00
2023-02-22T14:03:17.242Z,97396.00
2023-02-22T14:07:25.336Z,97393.00
2023-02-22T14:11:36.415Z,97392.00
2023-02-22T14:15:49.794Z,97382.00
2023-02-22T14:20:18.431Z,97392.00
2023-02-22T14:24:19.526Z,97396.00
2023-02-22T14:28:45.594Z,97391.00
2023-02-22T14:32:48.580Z,97395.00
2023-02-22T14:37:10.081Z,97394.00
2023-02-22T14:41:14.275Z,97390.00
2023-02-22T14:45:29.909Z,97386.00
2023-02-22T14:49:35.350Z,97385.00
2023-02-22T14:53:39.574Z,97380.00
2023-02-22T14:57:51.603Z,97383.00
2023-02-22T15:02:13.341Z,97382.00
2023-02-22T15:06:18.091Z,97382.00
2023-02-22T15:10:23.386Z,97385.00
2023-02-22T15:14:26.731Z,97381.00
2023-02-22T15:18:32.138Z,97387.00
2023-02-22T15:22:36.128Z,97394.00
2023-02-22T15:26:52.002Z,97387.00
2023-02-22T15:30:45.068Z,97393.00
2023-02-22T15:34:46.376Z,97385.00
2023-02-22T15:38:49.896Z,97386.00
2023-02-22T15:42:53.076Z,97381.00
2023-02-22T15:46:56.247Z,97377.00
2023-02-22T15:51:08.523Z,97392.00
2023-02-22T15:55:10.634Z,97384.00
2023-02-22T15:59:14.631Z,97391.00
2023-02-22T16:03:19.738Z,97399.00
2023-02-22T16:07:23.593Z,97401.00
2023-02-22T16:11:33.654Z,97402.00
2023-02-22T16:15:35.334Z,97407.00
2023-02-22T16:19:42.632Z,97406.00
2023-02-22T16:23:49.620Z,97404.00
2023-02-22T16:28:00.932Z,97415.00
2023-02-22T16:32:03.160Z,97410.00
2023-02-22T16:36:07.300Z,97408.00
2023-02-22T16:40:15.598Z,97412.00
2023-02-22T16:44:17.539Z,97412.00
2023-02-22T16:48:24.396Z,97413.00
2023-02-22T16:52:27.521Z,97411.00
2023-02-22T16:56:31.171Z,97405.00
2023-02-22T17:00:35.990Z,97409.00
2023-02-22T17:04:37.164Z,97414.00
2023-02-22T17:08:40.769Z,97411.00
2023-02-22T17:12:44.665Z,97417.00
2023-02-22T17:16:48.419Z,97412.00
2023-02-22T17:20:50.796Z,97421.00
2023-02-22T17:24:52.142Z,97423.00
2023-02-22T17:28:53.415Z,97424.00
2023-02-22T17:32:56.371Z,97429.00
2023-02-22T17:36:57.852Z,97430.00
2023-02-22T17:41:00.752Z,97428.00
2023-02-22T17:45:01.957Z,97429.00
2023-02-22T17:49:03.152Z,97432.00
2023-02-22T17:53:04.854Z,97434.00
2023-02-22T17:57:06.506Z,97432.00
2023-02-22T18:01:29.329Z,97432.00
2023-02-22T18:05:32.378Z,97441.00
2023-02-22T18:09:41.258Z,97439.00
2023-02-22T18:13:42.340Z,97436.00
2023-02-22T18:17:45.008Z,97431.00
2023-02-22T18:21:46.051Z,97422.00
2023-02-22T18:26:00.240Z,97426.00
2023-02-22T18:29:51.809Z,97430.00
2023-02-22T18:33:53.035Z,97430.00
2023-02-22T18:37:54.280Z,97429.00
2023-02-22T18:41:56.019Z,97426.00
2023-02-22T18:46:12.220Z,97424.00
2023-02-22T18:50:16.111Z,97421.00
2023-02-22T18:54:19.323Z,97427.00
2023-02-22T18:58:20.556Z,97426.00
2023-02-22T19:02:22.471Z,97430.00
2023-02-22T19:06:24.330Z,97421.00
2023-02-22T19:10:25.801Z,97420.00
2023-02-22T19:14:27.073Z,97417.00
2023-02-22T19:18:28.220Z,97414.00
2023-02-22T19:22:31.279Z,97417.00
2023-02-22T19:26:32.392Z,97415.00
2023-02-22T19:30:33.457Z,97422.00
2023-02-22T19:34:36.352Z,97417.00
2023-02-22T19:38:38.267Z,97417.00
2023-02-22T19:42:39.343Z,97423.00
2023-02-22T19:46:40.711Z,97416.00
2023-02-22T19:50:44.319Z,97293.00
2023-02-22T19:54:45.521Z,97415.00
2023-02-22T19:58:49.395Z,97416.00
2023-02-22T20:03:00.721Z,97415.00
2023-02-22T20:07:01.899Z,97419.00
2023-02-22T20:11:04.103Z,97418.00
2023-02-22T20:15:06.235Z,97425.00
2023-02-22T20:19:07.413Z,97425.00
2023-02-22T20:23:09.158Z,97424.00
2023-02-22T20:27:12.616Z,97444.00
2023-02-22T20:31:14.810Z,97431.00
2023-02-22T20:35:16.498Z,97439.00
2023-02-22T20:39:17.723Z,97433.00
2023-02-22T20:43:19.031Z,97441.00
2023-02-22T20:47:20.767Z,97425.00
2023-02-22T20:51:22.608Z,97425.00
2023-02-22T20:55:24.708Z,97427.00
2023-02-22T20:59:28.385Z,97431.00
2023-02-22T21:03:34.531Z,97429.00
2023-02-22T21:07:35.662Z,97433.00
2023-02-22T21:11:38.316Z,97437.00
2023-02-22T21:15:43.101Z,97437.00
2023-02-22T21:19:44.687Z,97440.00
2023-02-22T21:23:49.407Z,97441.00
2023-02-22T21:27:52.018Z,97441.00
2023-02-22T21:31:54.165Z,97443.00
2023-02-22T21:35:55.462Z,97323.00
2023-02-22T21:39:58.573Z,97440.00
2023-02-22T21:44:00.267Z,97438.00
2023-02-22T21:48:02.009Z,97442.00
2023-02-22T21:52:03.980Z,97446.00
2023-02-22T21:56:05.971Z,97438.00
2023-02-22T22:00:14.671Z,97440.00
2023-02-22T22:04:22.913Z,97436.00
2023-02-22T22:08:24.479Z,97440.00
2023-02-22T22:12:37.429Z,97438.00
2023-02-22T22:16:30.404Z,97433.00
2023-02-22T22:20:33.405Z,97430.00
2023-02-22T22:24:34.933Z,97429.00
2023-02-22T22:28:38.137Z,97425.00
2023-02-22T22:32:39.689Z,97419.00
2023-02-22T22:36:41.243Z,97423.00
2023-02-22T22:40:43.553Z,97418.00
2023-02-22T22:44:46.613Z,97419.00
2023-02-22T22:48:47.734Z,97422.00
2023-02-22T22:52:48.700Z,97420.00
2023-02-22T22:56:49.805Z,97439.00
2023-02-22T23:00:52.825Z,97420.00
2023-02-22T23:04:53.945Z,97430.00
2023-02-22T23:08:59.460Z,97431.00
2023-02-22T23:13:00.539Z,97434.00
2023-02-22T23:17:04.866Z,97430.00
2023-02-22T23:21:05.998Z,97427.00
2023-02-22T23:25:08.083Z,97421.00
2023-02-22T23:29:09.199Z,97436.00
2023-02-22T23:33:10.184Z,97438.00
2023-02-22T23:37:13.040Z,97428.00
2023-02-22T23:41:18.792Z,97427.00
2023-02-22T23:45:24.285Z,97429.00
2023-02-22T23:49:26.907Z,97427.00
2023-02-22T23:53:29.460Z,97424.00
2023-02-22T23:57:32.101Z,97421.00
